sensor_id;sensor_type;location;lat;lon;timestamp;pressure;altitude;pressure_sealevel;temperature;humidity
45813;BME280;31519;45.408;10.962;2024-02-23T00:00:55;99452.22;;;12.24;100.00
45813;BME280;31519;45.408;10.962;2024-02-23T00:03:43;99445.97;;;12.48;100.00
45813;BME280;31519;45.408;10.962;2024-02-23T00:06:12;99424.53;;;12.44;100.00
45813;BME280;31519;45.408;10.962;2024-02-23T00:08:40;99419.13;;;12.57;100.00
45813;BME280;31519;45.408;10.962;2024-02-23T00:11:10;99410.03;;;12.30;100.00
45813;BME280;31519;45.408;10.962;2024-02-23T00:13:38;99413.03;;;12.28;100.00
45813;BME280;31519;45.408;10.962;2024-02-23T00:16:06;99402.06;;;12.46;100.00
45813;BME280;31519;45.408;10.962;2024-02-23T00:18:35;99386.09;;;12.33;100.00
45813;BME280;31519;45.408;10.962;2024-02-23T00:21:03;99405.31;;;12.39;99.99
45813;BME280;31519;45.408;10.962;2024-02-23T00:23:33;99412.03;;;12.49;99.91
45813;BME280;31519;45.408;10.962;2024-02-23T00:26:02;99398.84;;;12.40;100.00
45813;BME280;31519;45.408;10.962;2024-02-23T00:28:31;99393.97;;;12.58;99.36
45813;BME280;31519;45.408;10.962;2024-02-23T00:31:00;99381.56;;;12.50;99.37
45813;BME280;31519;45.408;10.962;2024-02-23T00:33:28;99380.69;;;12.46;98.97
45813;BME280;31519;45.408;10.962;2024-02-23T00:35:56;99382.66;;;12.49;98.85
45813;BME280;31519;45.408;10.962;2024-02-23T00:38:24;99377.19;;;12.29;99.26
45813;BME280;31519;45.408;10.962;2024-02-23T00:40:53;99371.03;;;12.41;98.75
45813;BME280;31519;45.408;10.962;2024-02-23T00:43:22;99363.88;;;12.45;97.96
45813;BME280;31519;45.408;10.962;2024-02-23T00:45:51;99361.47;;;12.40;98.12
45813;BME280;31519;45.408;10.962;2024-02-23T00:48:19;99368.53;;;12.32;98.12
45813;BME280;31519;45.408;10.962;2024-02-23T00:50:48;99362.16;;;12.37;97.87
45813;BME280;31519;45.408;10.962;2024-02-23T00:53:16;99356.03;;;12.36;98.67
45813;BME280;31519;45.408;10.962;2024-02-23T00:55:46;99343.59;;;12.13;98.90
45813;BME280;31519;45.408;10.962;2024-02-23T00:58:14;99346.03;;;12.18;98.64
45813;BME280;31519;45.408;10.962;2024-02-23T01:00:44;99341.03;;;12.32;98.73
45813;BME280;31519;45.408;10.962;2024-02-23T01:03:12;99335.63;;;12.44;97.92
45813;BME280;31519;45.408;10.962;2024-02-23T01:05:41;99325.38;;;12.30;97.83
45813;BME280;31519;45.408;10.962;2024-02-23T01:08:10;99322.53;;;12.23;97.63
45813;BME280;31519;45.408;10.962;2024-02-23T01:10:39;99325.31;;;12.15;97.53
45813;BME280;31519;45.408;10.962;2024-02-23T01:13:07;99320.81;;;12.31;97.21
45813;BME280;31519;45.408;10.962;2024-02-23T01:15:36;99315.25;;;12.24;97.50
45813;BME280;31519;45.408;10.962;2024-02-23T01:18:04;99315.38;;;12.27;97.61
45813;BME280;31519;45.408;10.962;2024-02-23T01:20:36;99305.81;;;12.26;97.12
45813;BME280;31519;45.408;10.962;2024-02-23T01:23:04;99290.91;;;12.41;96.67
45813;BME280;31519;45.408;10.962;2024-02-23T01:25:32;99283.69;;;12.41;95.37
45813;BME280;31519;45.408;10.962;2024-02-23T01:28:03;99273.34;;;12.40;95.66
45813;BME280;31519;45.408;10.962;2024-02-23T01:30:32;99267.91;;;12.36;96.23
45813;BME280;31519;45.408;10.962;2024-02-23T01:33:00;99260.69;;;12.37;96.13
45813;BME280;31519;45.408;10.962;2024-02-23T01:35:29;99251.47;;;12.34;95.29
45813;BME280;31519;45.408;10.962;2024-02-23T01:37:58;99249.66;;;12.23;95.65
45813;BME280;31519;45.408;10.962;2024-02-23T01:40:27;99242.66;;;12.34;95.08
45813;BME280;31519;45.408;10.962;2024-02-23T01:43:05;99246.38;;;12.45;95.08
45813;BME280;31519;45.408;10.962;2024-02-23T01:45:33;99230.94;;;12.38;94.71
45813;BME280;31519;45.408;10.962;2024-02-23T01:48:01;99215.28;;;12.37;95.81
45813;BME280;31519;45.408;10.962;2024-02-23T01:50:31;99213.22;;;12.30;96.02
45813;BME280;31519;45.408;10.962;2024-02-23T01:53:01;99208.91;;;12.26;95.19
45813;BME280;31519;45.408;10.962;2024-02-23T01:55:31;99209.59;;;12.38;95.38
45813;BME280;31519;45.408;10.962;2024-02-23T01:58:04;99228.28;;;12.38;94.91
45813;BME280;31519;45.408;10.962;2024-02-23T02:00:36;99224.13;;;12.57;94.34
45813;BME280;31519;45.408;10.962;2024-02-23T02:03:04;99216.22;;;12.60;93.29
45813;BME280;31519;45.408;10.962;2024-02-23T02:05:38;99211.66;;;12.45;93.85
45813;BME280;31519;45.408;10.962;2024-02-23T02:08:07;99195.19;;;12.43;93.91
45813;BME280;31519;45.408;10.962;2024-02-23T02:10:36;99213.47;;;12.41;94.81
45813;BME280;31519;45.408;10.962;2024-02-23T02:13:05;99205.19;;;12.46;95.03
45813;BME280;31519;45.408;10.962;2024-02-23T02:15:34;99207.69;;;12.55;94.13
45813;BME280;31519;45.408;10.962;2024-02-23T02:18:02;99206.19;;;12.57;93.50
45813;BME280;31519;45.408;10.962;2024-02-23T02:20:33;99205.19;;;12.46;93.41
45813;BME280;31519;45.408;10.962;2024-02-23T02:23:02;99201.16;;;12.36;93.69
45813;BME280;31519;45.408;10.962;2024-02-23T02:25:53;99192.19;;;12.44;94.37
45813;BME280;31519;45.408;10.962;2024-02-23T02:28:24;99179.09;;;12.39;95.28
45813;BME280;31519;45.408;10.962;2024-02-23T02:30:53;99190.22;;;12.10;95.82
45813;BME280;31519;45.408;10.962;2024-02-23T02:33:22;99192.13;;;12.25;96.24
45813;BME280;31519;45.408;10.962;2024-02-23T02:35:51;99186.44;;;12.27;95.78
45813;BME280;31519;45.408;10.962;2024-02-23T02:38:19;99185.41;;;12.16;96.51
45813;BME280;31519;45.408;10.962;2024-02-23T02:40:48;99169.56;;;12.23;96.32
45813;BME280;31519;45.408;10.962;2024-02-23T02:43:16;99157.94;;;12.31;95.99
45813;BME280;31519;45.408;10.962;2024-02-23T02:45:45;99145.81;;;12.18;96.46
45813;BME280;31519;45.408;10.962;2024-02-23T02:48:13;99134.97;;;12.11;96.78
45813;BME280;31519;45.408;10.962;2024-02-23T02:50:42;99131.88;;;12.09;96.90
45813;BME280;31519;45.408;10.962;2024-02-23T02:53:10;99124.91;;;12.04;96.39
45813;BME280;31519;45.408;10.962;2024-02-23T02:55:42;99129.78;;;12.18;95.60
45813;BME280;31519;45.408;10.962;2024-02-23T02:58:13;99119.00;;;12.30;94.58
45813;BME280;31519;45.408;10.962;2024-02-23T03:00:42;99109.66;;;12.39;93.72
45813;BME280;31519;45.408;10.962;2024-02-23T03:03:11;99106.94;;;12.36;93.78
45813;BME280;31519;45.408;10.962;2024-02-23T03:05:41;99105.84;;;12.21;94.16
45813;BME280;31519;45.408;10.962;2024-02-23T03:08:09;99098.41;;;12.30;93.38
45813;BME280;31519;45.408;10.962;2024-02-23T03:10:38;99097.31;;;12.31;92.91
45813;BME280;31519;45.408;10.962;2024-02-23T03:13:06;99085.13;;;12.34;92.96
45813;BME280;31519;45.408;10.962;2024-02-23T03:15:35;99072.63;;;12.38;92.51
45813;BME280;31519;45.408;10.962;2024-02-23T03:18:04;99069.38;;;12.29;92.71
45813;BME280;31519;45.408;10.962;2024-02-23T03:20:33;99073.97;;;12.48;92.41
45813;BME280;31519;45.408;10.962;2024-02-23T03:23:01;99080.25;;;12.55;91.60
45813;BME280;31519;45.408;10.962;2024-02-23T03:25:33;99074.41;;;12.50;91.67
45813;BME280;31519;45.408;10.962;2024-02-23T03:28:01;99074.63;;;12.41;91.76
45813;BME280;31519;45.408;10.962;2024-02-23T03:30:30;99064.72;;;12.41;91.65
45813;BME280;31519;45.408;10.962;2024-02-23T03:33:02;99065.56;;;12.46;91.40
45813;BME280;31519;45.408;10.962;2024-02-23T03:35:31;99069.84;;;12.50;90.92
45813;BME280;31519;45.408;10.962;2024-02-23T03:37:59;99060.56;;;12.44;91.01
45813;BME280;31519;45.408;10.962;2024-02-23T03:40:28;99053.03;;;12.50;90.80
45813;BME280;31519;45.408;10.962;2024-02-23T03:42:56;99050.44;;;12.72;89.77
45813;BME280;31519;45.408;10.962;2024-02-23T03:45:25;99049.38;;;12.77;89.42
45813;BME280;31519;45.408;10.962;2024-02-23T03:47:53;99034.47;;;12.76;89.24
45813;BME280;31519;45.408;10.962;2024-02-23T03:50:22;99032.56;;;12.76;89.28
45813;BME280;31519;45.408;10.962;2024-02-23T03:52:50;99026.47;;;12.57;90.44
45813;BME280;31519;45.408;10.962;2024-02-23T03:55:18;99029.97;;;12.61;90.27
45813;BME280;31519;45.408;10.962;2024-02-23T03:57:47;99025.41;;;12.61;90.41
45813;BME280;31519;45.408;10.962;2024-02-23T04:00:15;99029.84;;;12.73;88.95
45813;BME280;31519;45.408;10.962;2024-02-23T04:02:44;99017.88;;;12.67;89.33
45813;BME280;31519;45.408;10.962;2024-02-23T04:05:12;99011.19;;;12.76;89.01
45813;BME280;31519;45.408;10.962;2024-02-23T04:07:40;99005.91;;;12.80;88.67
45813;BME280;31519;45.408;10.962;2024-02-23T04:10:09;98996.22;;;12.72;87.70
45813;BME280;31519;45.408;10.962;2024-02-23T04:12:37;98989.88;;;12.80;88.12
45813;BME280;31519;45.408;10.962;2024-02-23T04:15:06;98994.75;;;12.97;87.83
45813;BME280;31519;45.408;10.962;2024-02-23T04:17:34;99003.97;;;12.77;89.35
45813;BME280;31519;45.408;10.962;2024-02-23T04:20:07;99011.50;;;12.52;91.18
45813;BME280;31519;45.408;10.962;2024-02-23T04:22:36;99012.06;;;12.61;89.23
45813;BME280;31519;45.408;10.962;2024-02-23T04:25:05;99000.63;;;12.83;87.47
45813;BME280;31519;45.408;10.962;2024-02-23T04:27:33;98999.16;;;12.86;87.03
45813;BME280;31519;45.408;10.962;2024-02-23T04:30:04;99000.81;;;12.94;87.70
45813;BME280;31519;45.408;10.962;2024-02-23T04:32:32;98990.47;;;12.93;87.90
45813;BME280;31519;45.408;10.962;2024-02-23T04:35:01;98968.28;;;12.88;87.58
45813;BME280;31519;45.408;10.962;2024-02-23T04:37:30;98973.84;;;12.80;88.02
45813;BME280;31519;45.408;10.962;2024-02-23T04:40:02;98965.53;;;12.62;87.95
45813;BME280;31519;45.408;10.962;2024-02-23T04:42:32;98959.69;;;12.57;87.77
45813;BME280;31519;45.408;10.962;2024-02-23T04:45:00;98960.97;;;12.63;87.63
45813;BME280;31519;45.408;10.962;2024-02-23T04:47:29;98965.50;;;12.81;86.75
45813;BME280;31519;45.408;10.962;2024-02-23T04:49:58;98963.88;;;12.77;85.69
45813;BME280;31519;45.408;10.962;2024-02-23T04:52:27;98950.81;;;12.72;86.39
45813;BME280;31519;45.408;10.962;2024-02-23T04:54:56;98954.25;;;12.72;85.81
45813;BME280;31519;45.408;10.962;2024-02-23T04:57:24;98939.28;;;12.68;85.75
45813;BME280;31519;45.408;10.962;2024-02-23T04:59:53;98921.72;;;12.67;85.93
45813;BME280;31519;45.408;10.962;2024-02-23T05:02:21;98920.06;;;12.81;84.65
45813;BME280;31519;45.408;10.962;2024-02-23T05:04:49;98927.00;;;12.86;84.85
45813;BME280;31519;45.408;10.962;2024-02-23T05:07:17;98924.69;;;12.84;84.65
45813;BME280;31519;45.408;10.962;2024-02-23T05:09:46;98926.47;;;12.77;85.63
45813;BME280;31519;45.408;10.962;2024-02-23T05:12:14;98935.13;;;12.93;84.61
45813;BME280;31519;45.408;10.962;2024-02-23T05:14:43;98927.84;;;12.90;84.46
45813;BME280;31519;45.408;10.962;2024-02-23T05:17:11;98919.09;;;12.93;84.07
45813;BME280;31519;45.408;10.962;2024-02-23T05:19:40;98911.91;;;12.97;83.52
45813;BME280;31519;45.408;10.962;2024-02-23T05:22:09;98904.22;;;12.92;84.21
45813;BME280;31519;45.408;10.962;2024-02-23T05:24:38;98896.34;;;13.03;84.12
45813;BME280;31519;45.408;10.962;2024-02-23T05:27:06;98895.56;;;13.02;83.79
45813;BME280;31519;45.408;10.962;2024-02-23T05:29:34;98879.16;;;12.77;84.50
45813;BME280;31519;45.408;10.962;2024-02-23T05:32:03;98873.75;;;12.74;85.18
45813;BME280;31519;45.408;10.962;2024-02-23T05:34:31;98879.63;;;12.83;84.62
45813;BME280;31519;45.408;10.962;2024-02-23T05:37:00;98869.53;;;12.96;84.52
45813;BME280;31519;45.408;10.962;2024-02-23T05:39:29;98867.97;;;12.95;84.43
45813;BME280;31519;45.408;10.962;2024-02-23T05:41:57;98863.06;;;12.97;84.30
45813;BME280;31519;45.408;10.962;2024-02-23T05:44:28;98880.16;;;12.92;84.72
45813;BME280;31519;45.408;10.962;2024-02-23T05:46:56;98880.69;;;13.01;84.04
45813;BME280;31519;45.408;10.962;2024-02-23T05:49:25;98883.41;;;13.05;84.02
45813;BME280;31519;45.408;10.962;2024-02-23T05:51:53;98897.72;;;13.16;84.17
45813;BME280;31519;45.408;10.962;2024-02-23T05:54:23;98885.06;;;13.13;83.13
45813;BME280;31519;45.408;10.962;2024-02-23T05:56:51;98877.13;;;12.94;84.40
45813;BME280;31519;45.408;10.962;2024-02-23T05:59:20;98878.31;;;12.96;83.54
45813;BME280;31519;45.408;10.962;2024-02-23T06:01:48;98886.91;;;13.09;83.70
45813;BME280;31519;45.408;10.962;2024-02-23T06:04:17;98879.59;;;13.06;83.49
45813;BME280;31519;45.408;10.962;2024-02-23T06:06:45;98879.00;;;13.16;83.89
45813;BME280;31519;45.408;10.962;2024-02-23T06:09:14;98884.44;;;12.97;85.08
45813;BME280;31519;45.408;10.962;2024-02-23T06:11:42;98896.59;;;13.17;85.32
45813;BME280;31519;45.408;10.962;2024-02-23T06:14:11;98880.69;;;13.01;85.94
45813;BME280;31519;45.408;10.962;2024-02-23T06:16:39;98887.41;;;13.14;85.27
45813;BME280;31519;45.408;10.962;2024-02-23T06:19:08;98891.97;;;13.14;85.10
45813;BME280;31519;45.408;10.962;2024-02-23T06:21:37;98900.50;;;13.23;85.25
45813;BME280;31519;45.408;10.962;2024-02-23T06:24:05;98898.88;;;13.15;85.18
45813;BME280;31519;45.408;10.962;2024-02-23T06:26:36;98907.03;;;13.25;84.71
45813;BME280;31519;45.408;10.962;2024-02-23T06:29:04;98904.47;;;13.32;85.24
45813;BME280;31519;45.408;10.962;2024-02-23T06:31:33;98907.06;;;13.29;85.76
45813;BME280;31519;45.408;10.962;2024-02-23T06:34:03;98912.75;;;13.24;86.38
45813;BME280;31519;45.408;10.962;2024-02-23T06:36:31;98906.50;;;13.16;87.52
45813;BME280;31519;45.408;10.962;2024-02-23T06:39:00;98911.47;;;13.14;88.99
45813;BME280;31519;45.408;10.962;2024-02-23T06:41:28;98904.75;;;13.01;89.49
45813;BME280;31519;45.408;10.962;2024-02-23T06:43:57;98909.19;;;12.94;91.26
45813;BME280;31519;45.408;10.962;2024-02-23T06:46:25;98915.72;;;12.96;91.73
45813;BME280;31519;45.408;10.962;2024-02-23T06:48:54;98921.19;;;12.80;92.91
45813;BME280;31519;45.408;10.962;2024-02-23T06:51:22;98921.47;;;12.75;93.53
45813;BME280;31519;45.408;10.962;2024-02-23T06:53:51;98918.28;;;12.89;93.59
45813;BME280;31519;45.408;10.962;2024-02-23T06:56:19;98914.53;;;12.94;94.16
45813;BME280;31519;45.408;10.962;2024-02-23T06:58:48;98914.13;;;12.69;95.75
45813;BME280;31519;45.408;10.962;2024-02-23T07:01:16;98919.75;;;12.64;96.04
45813;BME280;31519;45.408;10.962;2024-02-23T07:03:45;98920.84;;;12.82;95.48
45813;BME280;31519;45.408;10.962;2024-02-23T07:06:13;98907.19;;;12.64;96.62
45813;BME280;31519;45.408;10.962;2024-02-23T07:08:44;98907.78;;;12.77;95.71
45813;BME280;31519;45.408;10.962;2024-02-23T07:11:13;98915.00;;;12.76;96.85
45813;BME280;31519;45.408;10.962;2024-02-23T07:13:43;98919.28;;;12.81;96.41
45813;BME280;31519;45.408;10.962;2024-02-23T07:16:12;98914.72;;;12.81;96.87
45813;BME280;31519;45.408;10.962;2024-02-23T07:18:41;98907.53;;;12.85;97.66
45813;BME280;31519;45.408;10.962;2024-02-23T07:21:09;98911.47;;;12.92;97.80
45813;BME280;31519;45.408;10.962;2024-02-23T07:23:38;98915.75;;;12.73;98.20
45813;BME280;31519;45.408;10.962;2024-02-23T07:26:06;98906.22;;;12.76;98.64
45813;BME280;31519;45.408;10.962;2024-02-23T07:28:35;98917.50;;;12.88;99.08
45813;BME280;31519;45.408;10.962;2024-02-23T07:31:03;98916.56;;;12.77;98.33
45813;BME280;31519;45.408;10.962;2024-02-23T07:33:32;98904.91;;;12.66;99.64
45813;BME280;31519;45.408;10.962;2024-02-23T07:36:00;98908.41;;;12.70;100.00
45813;BME280;31519;45.408;10.962;2024-02-23T07:38:29;98915.78;;;12.77;98.65
45813;BME280;31519;45.408;10.962;2024-02-23T07:40:58;98924.72;;;12.65;98.93
45813;BME280;31519;45.408;10.962;2024-02-23T07:43:27;98917.78;;;12.83;99.17
45813;BME280;31519;45.408;10.962;2024-02-23T07:45:57;98917.97;;;12.71;99.36
45813;BME280;31519;45.408;10.962;2024-02-23T07:48:26;98904.81;;;12.82;99.92
45813;BME280;31519;45.408;10.962;2024-02-23T07:50:54;98893.34;;;12.81;100.00
45813;BME280;31519;45.408;10.962;2024-02-23T07:53:23;98905.34;;;12.91;99.87
45813;BME280;31519;45.408;10.962;2024-02-23T07:55:51;98904.09;;;12.85;100.00
45813;BME280;31519;45.408;10.962;2024-02-23T07:58:20;98901.75;;;12.83;100.00
45813;BME280;31519;45.408;10.962;2024-02-23T08:00:49;98905.69;;;12.89;99.79
45813;BME280;31519;45.408;10.962;2024-02-23T08:03:18;98898.09;;;12.92;99.89
45813;BME280;31519;45.408;10.962;2024-02-23T08:05:47;98895.97;;;12.78;100.00
45813;BME280;31519;45.408;10.962;2024-02-23T08:08:15;98901.59;;;12.73;100.00
45813;BME280;31519;45.408;10.962;2024-02-23T08:10:44;98907.34;;;12.75;100.00
45813;BME280;31519;45.408;10.962;2024-02-23T08:13:12;98895.06;;;12.70;100.00
45813;BME280;31519;45.408;10.962;2024-02-23T08:15:41;98891.94;;;12.65;100.00
45813;BME280;31519;45.408;10.962;2024-02-23T08:18:09;98900.34;;;12.89;100.00
45813;BME280;31519;45.408;10.962;2024-02-23T08:20:38;98893.81;;;12.87;100.00
45813;BME280;31519;45.408;10.962;2024-02-23T08:23:07;98902.75;;;12.98;100.00
45813;BME280;31519;45.408;10.962;2024-02-23T08:25:37;98898.91;;;12.96;100.00
45813;BME280;31519;45.408;10.962;2024-02-23T08:28:06;98891.53;;;12.89;100.00
45813;BME280;31519;45.408;10.962;2024-02-23T08:30:34;98896.47;;;13.10;100.00
45813;BME280;31519;45.408;10.962;2024-02-23T08:33:03;98907.03;;;13.03;100.00
45813;BME280;31519;45.408;10.962;2024-02-23T08:35:33;98919.41;;;13.11;100.00
45813;BME280;31519;45.408;10.962;2024-02-23T08:38:02;98918.50;;;13.03;100.00
45813;BME280;31519;45.408;10.962;2024-02-23T08:40:32;98912.50;;;13.10;99.88
45813;BME280;31519;45.408;10.962;2024-02-23T08:43:01;98903.53;;;13.21;99.52
45813;BME280;31519;45.408;10.962;2024-02-23T08:45:29;98908.38;;;13.12;100.00
45813;BME280;31519;45.408;10.962;2024-02-23T08:47:58;98901.59;;;13.18;100.00
45813;BME280;31519;45.408;10.962;2024-02-23T08:50:26;98899.31;;;13.20;100.00
45813;BME280;31519;45.408;10.962;2024-02-23T08:52:55;98904.56;;;13.13;100.00
45813;BME280;31519;45.408;10.962;2024-02-23T08:55:24;98910.13;;;13.05;100.00
45813;BME280;31519;45.408;10.962;2024-02-23T08:57:53;98912.38;;;13.03;100.00
45813;BME280;31519;45.408;10.962;2024-02-23T09:00:21;98914.91;;;13.15;100.00
45813;BME280;31519;45.408;10.962;2024-02-23T09:02:51;98918.09;;;13.24;100.00
45813;BME280;31519;45.408;10.962;2024-02-23T09:05:19;98922.19;;;12.72;100.00
45813;BME280;31519;45.408;10.962;2024-02-23T09:07:49;98921.47;;;12.75;100.00
45813;BME280;31519;45.408;10.962;2024-02-23T09:10:17;98910.97;;;12.63;100.00
45813;BME280;31519;45.408;10.962;2024-02-23T09:12:46;98913.88;;;13.00;100.00
45813;BME280;31519;45.408;10.962;2024-02-23T09:15:15;98919.88;;;12.94;100.00
45813;BME280;31519;45.408;10.962;2024-02-23T09:17:44;98913.50;;;12.56;100.00
45813;BME280;31519;45.408;10.962;2024-02-23T09:20:12;98902.47;;;12.80;100.00
45813;BME280;31519;45.408;10.962;2024-02-23T09:22:41;98909.97;;;12.94;100.00
45813;BME280;31519;45.408;10.962;2024-02-23T09:25:09;98910.69;;;13.14;100.00
45813;BME280;31519;45.408;10.962;2024-02-23T09:27:38;98915.03;;;13.25;100.00
45813;BME280;31519;45.408;10.962;2024-02-23T09:30:14;98918.25;;;13.35;100.00
45813;BME280;31519;45.408;10.962;2024-02-23T09:32:43;98900.81;;;13.18;100.00
45813;BME280;31519;45.408;10.962;2024-02-23T09:35:12;98900.13;;;13.24;100.00
45813;BME280;31519;45.408;10.962;2024-02-23T09:37:41;98895.97;;;13.27;100.00
45813;BME280;31519;45.408;10.962;2024-02-23T09:40:09;98892.78;;;13.18;100.00
45813;BME280;31519;45.408;10.962;2024-02-23T09:42:39;98896.28;;;13.22;100.00
45813;BME280;31519;45.408;10.962;2024-02-23T09:45:08;98893.66;;;13.25;100.00
45813;BME280;31519;45.408;10.962;2024-02-23T09:47:40;98900.59;;;13.30;100.00
45813;BME280;31519;45.408;10.962;2024-02-23T09:50:09;98908.22;;;13.28;100.00
45813;BME280;31519;45.408;10.962;2024-02-23T09:52:39;98905.28;;;13.37;100.00
45813;BME280;31519;45.408;10.962;2024-02-23T09:55:08;98908.28;;;13.31;100.00
45813;BME280;31519;45.408;10.962;2024-02-23T09:57:39;98911.38;;;13.34;100.00
45813;BME280;31519;45.408;10.962;2024-02-23T10:00:08;98907.59;;;13.64;100.00
45813;BME280;31519;45.408;10.962;2024-02-23T10:02:40;98912.16;;;13.64;100.00
45813;BME280;31519;45.408;10.962;2024-02-23T10:05:14;98911.84;;;13.69;100.00
45813;BME280;31519;45.408;10.962;2024-02-23T10:07:43;98912.44;;;13.55;100.00
45813;BME280;31519;45.408;10.962;2024-02-23T10:10:12;98905.00;;;13.71;100.00
45813;BME280;31519;45.408;10.962;2024-02-23T10:12:41;98912.94;;;13.64;100.00
45813;BME280;31519;45.408;10.962;2024-02-23T10:15:09;98910.94;;;13.58;100.00
45813;BME280;31519;45.408;10.962;2024-02-23T10:17:38;98911.81;;;13.65;100.00
45813;BME280;31519;45.408;10.962;2024-02-23T10:20:09;98912.13;;;13.60;100.00
45813;BME280;31519;45.408;10.962;2024-02-23T10:22:39;98908.16;;;13.81;100.00
45813;BME280;31519;45.408;10.962;2024-02-23T10:25:08;98916.00;;;13.66;100.00
45813;BME280;31519;45.408;10.962;2024-02-23T10:27:36;98908.66;;;13.60;100.00
45813;BME280;31519;45.408;10.962;2024-02-23T10:30:05;98915.69;;;13.71;100.00
45813;BME280;31519;45.408;10.962;2024-02-23T10:32:35;98906.78;;;13.60;100.00
45813;BME280;31519;45.408;10.962;2024-02-23T10:35:13;98918.28;;;13.64;100.00
45813;BME280;31519;45.408;10.962;2024-02-23T10:37:48;98920.97;;;13.64;100.00
45813;BME280;31519;45.408;10.962;2024-02-23T10:40:19;98917.06;;;13.58;100.00
45813;BME280;31519;45.408;10.962;2024-02-23T10:42:48;98911.34;;;13.60;100.00
45813;BME280;31519;45.408;10.962;2024-02-23T10:45:20;98900.34;;;13.39;100.00
45813;BME280;31519;45.408;10.962;2024-02-23T10:47:50;98896.72;;;13.54;100.00
45813;BME280;31519;45.408;10.962;2024-02-23T10:50:20;98900.22;;;13.58;100.00
45813;BME280;31519;45.408;10.962;2024-02-23T10:52:50;98903.59;;;13.51;100.00
45813;BME280;31519;45.408;10.962;2024-02-23T10:55:18;98908.00;;;13.40;100.00
45813;BME280;31519;45.408;10.962;2024-02-23T10:57:51;98905.69;;;13.65;100.00
45813;BME280;31519;45.408;10.962;2024-02-23T11:00:21;98898.00;;;13.63;100.00
45813;BME280;31519;45.408;10.962;2024-02-23T11:02:54;98904.22;;;13.71;100.00
45813;BME280;31519;45.408;10.962;2024-02-23T11:05:23;98902.94;;;13.61;100.00
45813;BME280;31519;45.408;10.962;2024-02-23T11:07:56;98908.34;;;13.39;100.00
45813;BME280;31519;45.408;10.962;2024-02-23T11:10:24;98905.88;;;13.53;100.00
45813;BME280;31519;45.408;10.962;2024-02-23T11:12:58;98908.16;;;13.81;100.00
45813;BME280;31519;45.408;10.962;2024-02-23T11:15:30;98920.06;;;13.83;100.00
45813;BME280;31519;45.408;10.962;2024-02-23T11:18:02;98906.84;;;13.97;100.00
45813;BME280;31519;45.408;10.962;2024-02-23T11:20:37;98900.72;;;13.97;100.00
45813;BME280;31519;45.408;10.962;2024-02-23T11:23:13;98904.41;;;13.85;100.00
45813;BME280;31519;45.408;10.962;2024-02-23T11:25:42;98912.47;;;13.89;100.00
45813;BME280;31519;45.408;10.962;2024-02-23T11:28:22;98917.06;;;13.88;100.00
45813;BME280;31519;45.408;10.962;2024-02-23T11:30:53;98911.22;;;13.79;100.00
45813;BME280;31519;45.408;10.962;2024-02-23T11:33:26;98901.22;;;13.76;100.00
45813;BME280;31519;45.408;10.962;2024-02-23T11:36:22;98893.34;;;13.87;100.00
45813;BME280;31519;45.408;10.962;2024-02-23T11:38:54;98887.50;;;13.77;100.00
45813;BME280;31519;45.408;10.962;2024-02-23T11:41:26;98887.81;;;13.72;100.00
45813;BME280;31519;45.408;10.962;2024-02-23T11:43:55;98889.72;;;13.72;100.00
45813;BME280;31519;45.408;10.962;2024-02-23T11:46:24;98882.28;;;13.88;100.00
45813;BME280;31519;45.408;10.962;2024-02-23T11:48:52;98883.31;;;13.80;100.00
45813;BME280;31519;45.408;10.962;2024-02-23T11:51:24;98872.91;;;13.75;100.00
45813;BME280;31519;45.408;10.962;2024-02-23T11:53:55;98878.09;;;13.91;100.00
45813;BME280;31519;45.408;10.962;2024-02-23T11:56:29;98871.19;;;13.90;100.00
45813;BME280;31519;45.408;10.962;2024-02-23T11:58:58;98851.34;;;13.94;100.00
45813;BME280;31519;45.408;10.962;2024-02-23T12:01:29;98855.75;;;14.13;100.00
45813;BME280;31519;45.408;10.962;2024-02-23T12:03:57;98856.84;;;14.05;100.00
45813;BME280;31519;45.408;10.962;2024-02-23T12:06:26;98853.47;;;14.11;100.00
45813;BME280;31519;45.408;10.962;2024-02-23T12:08:58;98849.88;;;13.97;100.00
45813;BME280;31519;45.408;10.962;2024-02-23T12:11:27;98846.88;;;14.02;100.00
45813;BME280;31519;45.408;10.962;2024-02-23T12:13:56;98848.91;;;14.15;100.00
45813;BME280;31519;45.408;10.962;2024-02-23T12:16:27;98849.88;;;13.97;100.00
45813;BME280;31519;45.408;10.962;2024-02-23T12:18:56;98852.09;;;13.91;100.00
45813;BME280;31519;45.408;10.962;2024-02-23T12:21:24;98866.25;;;13.92;100.00
45813;BME280;31519;45.408;10.962;2024-02-23T12:23:53;98871.34;;;13.70;100.00
45813;BME280;31519;45.408;10.962;2024-02-23T12:26:22;98874.50;;;13.80;100.00
45813;BME280;31519;45.408;10.962;2024-02-23T12:28:50;98885.94;;;13.76;100.00
45813;BME280;31519;45.408;10.962;2024-02-23T12:31:23;98885.13;;;13.72;100.00
45813;BME280;31519;45.408;10.962;2024-02-23T12:33:54;98878.66;;;13.73;100.00
45813;BME280;31519;45.408;10.962;2024-02-23T12:36:22;98879.28;;;13.63;100.00
45813;BME280;31519;45.408;10.962;2024-02-23T12:38:51;98873.53;;;13.95;100.00
45813;BME280;31519;45.408;10.962;2024-02-23T12:41:19;98874.63;;;13.90;100.00
45813;BME280;31519;45.408;10.962;2024-02-23T12:43:48;98880.94;;;13.75;100.00
45813;BME280;31519;45.408;10.962;2024-02-23T12:46:16;98870.66;;;13.77;100.00
45813;BME280;31519;45.408;10.962;2024-02-23T12:48:45;98883.63;;;13.45;100.00
45813;BME280;31519;45.408;10.962;2024-02-23T12:51:13;98882.38;;;13.39;100.00
45813;BME280;31519;45.408;10.962;2024-02-23T12:53:42;98884.28;;;13.39;100.00
45813;BME280;31519;45.408;10.962;2024-02-23T12:56:12;98875.44;;;13.35;100.00